Belle Isle, Florida
Current Conditions -  °F | °C
As of 3:53 PM on Wednesday 26 Nov 2014 (Local Time) from KMCO Reporting Station
Broken Clouds Broken Clouds  
Wind Chill: 60°   Ceiling: 26000
Heat Index: 60°   Visibility: 10mi
Dew Point: 47°   Wind: 9mph
Humidity: 62%   Direction: 310°NW
Pressure: 30.14"   Gusts: NA
Location:  28.4861°N, 81.3274°W
Report Text: KMCO 262053Z 31008KT 10SM SCT190 BKN260 16/08 A3014 RMK AO2 SLP205 60000 T01560083 50007 $
Loading
Personal Weather Stations






























Interactive Weather Map New forecast layout! Learn more

10-Day Weather Forecast

Advertisements
Track Severe Weather on mobile